Time;durP1;ratioP1;P1;durP2;ratioP2;P2;SDS_P1;SDS_P2;PMS_P1;PMS_P2;Temp;Humidity;BMP_temperature;BMP_pressure;BME280_temperature;BME280_humidity;BME280_pressure;Samples;Min_cycle;Max_cycle;Signal;HPM_P1;HPM_P2
2022/05/13 00:02:12;;;;;;;17.45;11.35;;;17.00;75.50;;;;;;4975727;28;20069;-16
2022/05/13 00:04:39;;;;;;;17.00;11.07;;;17.00;76.40;;;;;;4975342;28;20077;-16
2022/05/13 00:07:07;;;;;;;16.80;11.50;;;16.90;76.70;;;;;;4975772;28;20038;-14
2022/05/13 00:12:19;;;;;;;15.55;10.48;;;16.90;76.20;;;;;;4975477;28;20050;-14
2022/05/13 00:14:46;;;;;;;16.63;9.85;;;16.90;76.40;;;;;;4975888;28;20463;-14
2022/05/13 00:17:12;;;;;;;12.63;8.07;;;16.90;75.00;;;;;;4975598;28;20027;-13
2022/05/13 00:19:39;;;;;;;17.10;9.95;;;16.90;75.10;;;;;;4974343;28;20054;-15
2022/05/13 00:22:05;;;;;;;14.07;9.88;;;16.90;74.80;;;;;;4975388;28;20475;-16
2022/05/13 00:24:31;;;;;;;13.38;10.10;;;16.90;75.10;;;;;;4974990;28;20027;-16
2022/05/13 00:26:57;;;;;;;13.95;8.77;;;16.90;75.20;;;;;;4975349;28;20034;-16
2022/05/13 00:29:23;;;;;;;12.80;8.88;;;16.90;75.10;;;;;;4975195;28;20034;-17
2022/05/13 00:31:49;;;;;;;16.08;9.55;;;16.80;74.90;;;;;;4975073;28;20509;-17
2022/05/13 00:34:15;;;;;;;13.18;8.80;;;16.80;75.10;;;;;;4974824;28;20027;-14
2022/05/13 00:36:41;;;;;;;13.00;9.18;;;16.80;74.90;;;;;;4975292;28;20034;-14
2022/05/13 00:39:08;;;;;;;13.98;10.82;;;16.70;75.10;;;;;;4975523;28;20023;-14
2022/05/13 00:41:35;;;;;;;15.70;11.32;;;16.70;76.70;;;;;;4974760;28;20561;-15
2022/05/13 00:44:01;;;;;;;18.40;12.93;;;16.70;77.00;;;;;;4974792;28;20035;-16
2022/05/13 00:46:28;;;;;;;17.40;11.77;;;16.60;76.60;;;;;;4974720;28;20078;-15
2022/05/13 00:48:55;;;;;;;15.00;10.05;;;16.60;76.20;;;;;;4974814;28;20030;-15
2022/05/13 00:51:29;;;;;;;14.27;9.38;;;16.60;76.30;;;;;;4975110;28;20525;-15
2022/05/13 00:53:56;;;;;;;13.70;9.18;;;16.50;75.90;;;;;;4974802;28;20118;-15
2022/05/13 00:56:23;;;;;;;17.02;11.50;;;16.50;75.90;;;;;;4974485;28;20038;-15
2022/05/13 00:58:54;;;;;;;17.05;11.60;;;16.50;75.90;;;;;;4974637;28;20035;-15
2022/05/13 01:01:20;;;;;;;21.02;11.82;;;16.50;75.90;;;;;;4974640;28;20502;-16
2022/05/13 01:03:48;;;;;;;13.98;9.88;;;16.50;76.10;;;;;;4974901;28;20038;-15
2022/05/13 01:06:19;;;;;;;18.80;11.50;;;16.50;76.20;;;;;;4974374;28;20019;-17
2022/05/13 01:08:47;;;;;;;17.63;11.35;;;16.40;76.20;;;;;;4974568;28;20037;-16
2022/05/13 01:11:18;;;;;;;20.08;12.25;;;16.50;76.30;;;;;;4974691;28;20034;-16
2022/05/13 01:13:47;;;;;;;20.60;12.85;;;16.40;76.60;;;;;;4974776;28;20105;-16
2022/05/13 01:16:13;;;;;;;18.38;12.23;;;16.40;76.90;;;;;;4974441;28;20064;-15
2022/05/13 01:18:43;;;;;;;14.40;10.43;;;16.40;76.50;;;;;;4974945;28;20113;-16
2022/05/13 01:21:13;;;;;;;18.73;11.18;;;16.40;76.40;;;;;;4974377;28;20475;-15
2022/05/13 01:23:43;;;;;;;22.55;14.52;;;16.40;76.80;;;;;;4974811;28;20027;-15
2022/05/13 01:26:13;;;;;;;17.17;12.63;;;16.30;77.20;;;;;;4974142;28;20043;-15
2022/05/13 01:28:46;;;;;;;18.35;13.25;;;16.30;77.60;;;;;;4974341;28;20388;-17
2022/05/13 01:31:20;;;;;;;19.77;14.27;;;16.30;77.40;;;;;;4975708;28;20031;-15
2022/05/13 01:33:47;;;;;;;18.02;13.00;;;16.20;77.50;;;;;;4978366;28;20546;-16
2022/05/13 01:36:13;;;;;;;20.58;13.23;;;16.20;77.10;;;;;;4978309;28;20483;-15
2022/05/13 01:38:41;;;;;;;27.25;17.00;;;16.20;77.40;;;;;;4978777;28;20031;-16
2022/05/13 01:41:09;;;;;;;24.70;18.08;;;16.20;78.00;;;;;;4978113;28;20047;-15
2022/05/13 01:43:37;;;;;;;22.25;15.63;;;16.20;77.70;;;;;;4977188;28;20045;-16
2022/05/13 01:46:04;;;;;;;19.50;13.93;;;16.20;78.10;;;;;;4978293;28;20051;-16
2022/05/13 01:48:30;;;;;;;21.70;14.00;;;16.20;77.70;;;;;;4977969;28;20037;-16
2022/05/13 01:50:56;;;;;;;21.80;14.75;;;16.20;77.50;;;;;;4978279;28;20031;-16
2022/05/13 01:53:22;;;;;;;23.70;15.95;;;16.20;77.60;;;;;;4978331;28;20019;-15
2022/05/13 01:55:49;;;;;;;23.27;14.32;;;16.10;77.60;;;;;;4977877;28;20023;-15
2022/05/13 01:58:21;;;;;;;30.00;21.15;;;16.10;77.90;;;;;;4977660;28;20058;-16
2022/05/13 02:00:49;;;;;;;24.60;17.00;;;16.10;78.00;;;;;;4977869;28;20042;-15
2022/05/13 02:06:00;;;;;;;20.70;15.13;;;16.10;78.00;;;;;;4977840;28;20081;-15
2022/05/13 02:08:27;;;;;;;22.92;16.13;;;16.00;78.10;;;;;;4976562;28;20031;-16
2022/05/13 02:10:53;;;;;;;19.85;14.38;;;16.00;78.70;;;;;;4977598;28;20034;-16
2022/05/13 02:13:19;;;;;;;24.52;15.88;;;16.00;78.60;;;;;;4978133;28;20026;-16
2022/05/13 02:15:45;;;;;;;26.77;18.27;;;16.00;78.30;;;;;;4977826;28;20094;-16
2022/05/13 02:18:11;;;;;;;23.75;17.25;;;16.00;79.00;;;;;;4977931;28;20482;-15
2022/05/13 02:20:39;;;;;;;23.05;16.67;;;16.00;78.90;;;;;;4977290;28;20073;-16
2022/05/13 02:23:06;;;;;;;25.02;17.33;;;15.90;78.90;;;;;;4976239;28;20050;-16
2022/05/13 02:25:33;;;;;;;25.48;17.13;;;16.00;79.00;;;;;;4977368;28;20114;-17
2022/05/13 02:28:00;;;;;;;34.33;21.48;;;16.00;78.90;;;;;;4976210;28;20046;-14
2022/05/13 02:30:28;;;;;;;32.08;20.80;;;16.00;80.00;;;;;;4977348;28;20081;-16
2022/05/13 02:32:56;;;;;;;36.08;22.05;;;16.00;79.90;;;;;;4977354;28;20023;-16
2022/05/13 02:35:22;;;;;;;34.75;21.48;;;16.00;79.90;;;;;;4977458;28;20603;-15
2022/05/13 02:37:49;;;;;;;26.42;18.08;;;16.00;79.60;;;;;;4977335;28;20499;-17
2022/05/13 02:40:16;;;;;;;29.23;20.75;;;16.00;79.30;;;;;;4976638;28;20388;-16
2022/05/13 02:42:43;;;;;;;37.40;24.45;;;16.10;80.30;;;;;;4976238;28;20027;-15
2022/05/13 02:45:09;;;;;;;27.75;18.75;;;16.00;79.90;;;;;;4975727;28;20038;-16
2022/05/13 02:47:37;;;;;;;28.85;19.27;;;16.00;79.70;;;;;;4975831;28;20062;-17
2022/05/13 02:50:21;;;;;;;31.25;20.05;;;16.00;79.80;;;;;;4977258;28;20034;-14
2022/05/13 02:52:47;;;;;;;;;;;16.00;79.80;;;;;;4977407;28;20023;-15
2022/05/13 02:55:14;;;;;;;21.50;15.05;;;15.90;80.60;;;;;;4977167;28;19975;-16
2022/05/13 02:57:40;;;;;;;23.35;16.33;;;15.90;79.50;;;;;;4976769;28;20029;-15
2022/05/13 03:00:09;;;;;;;22.92;16.50;;;15.90;79.30;;;;;;4976981;28;20031;-16
2022/05/13 03:02:35;;;;;;;26.23;17.60;;;15.90;79.40;;;;;;4976797;28;20030;-15
2022/05/13 03:05:02;;;;;;;28.02;18.65;;;15.90;79.10;;;;;;4976868;28;20050;-15
2022/05/13 03:07:28;;;;;;;24.02;17.42;;;15.90;79.50;;;;;;4976959;28;20121;-15
2022/05/13 03:09:54;;;;;;;28.85;20.25;;;15.90;79.50;;;;;;4976630;28;20118;-17
2022/05/13 03:12:20;;;;;;;32.47;21.35;;;15.90;79.70;;;;;;4975007;28;20121;-15
2022/05/13 03:14:46;;;;;;;29.10;17.58;;;15.90;80.00;;;;;;4977179;28;20038;-16
2022/05/13 03:17:12;;;;;;;29.27;20.17;;;15.90;79.80;;;;;;4976476;28;20030;-14
2022/05/13 03:19:39;;;;;;;24.67;18.17;;;15.90;80.60;;;;;;4976621;28;20027;-15
2022/05/13 03:22:06;;;;;;;47.42;28.63;;;15.90;79.90;;;;;;4976725;28;20105;-14
2022/05/13 03:24:33;;;;;;;27.20;18.75;;;15.90;80.50;;;;;;4976224;28;20382;-17
2022/05/13 03:27:00;;;;;;;30.27;21.42;;;15.90;79.90;;;;;;4976219;28;20042;-16
2022/05/13 03:29:27;;;;;;;27.65;19.27;;;15.90;79.80;;;;;;4976238;28;20545;-16
2022/05/13 03:31:54;;;;;;;28.90;19.60;;;15.90;79.80;;;;;;4976499;28;20081;-15
2022/05/13 03:34:21;;;;;;;28.60;19.90;;;15.90;79.70;;;;;;4975947;28;20542;-16
2022/05/13 03:36:51;;;;;;;29.75;19.70;;;15.90;79.70;;;;;;4976411;28;20054;-17
2022/05/13 03:39:17;;;;;;;30.90;20.38;;;15.90;79.70;;;;;;4976084;28;20114;-17
2022/05/13 03:41:43;;;;;;;31.08;21.63;;;15.90;80.00;;;;;;4975750;28;20110;-16
2022/05/13 03:44:10;;;;;;;32.63;22.40;;;15.90;81.00;;;;;;4975881;28;20402;-15
2022/05/13 03:46:36;;;;;;;38.70;24.27;;;15.90;80.70;;;;;;4976133;28;20037;-16
2022/05/13 03:49:03;;;;;;;37.42;22.63;;;15.90;80.60;;;;;;4975884;28;20026;-16
2022/05/13 03:51:29;;;;;;;33.25;22.38;;;15.90;80.70;;;;;;4975869;28;20023;-15
2022/05/13 03:53:55;;;;;;;26.55;19.27;;;15.90;80.40;;;;;;4975740;28;20034;-15
2022/05/13 03:56:21;;;;;;;45.40;28.80;;;15.90;80.50;;;;;;4975780;28;20023;-16
2022/05/13 03:58:47;;;;;;;33.28;22.85;;;15.90;80.60;;;;;;4974542;28;20471;-16
2022/05/13 04:01:13;;;;;;;31.10;21.23;;;15.90;80.90;;;;;;4975894;28;20067;-17
2022/05/13 04:03:39;;;;;;;27.80;20.02;;;15.90;81.10;;;;;;4975629;28;20041;-17
2022/05/13 04:08:59;;;;;;;33.53;22.05;;;15.90;80.60;;;;;;4975855;28;20069;-16
2022/05/13 04:11:36;;;;;;;33.67;22.67;;;16.00;81.00;;;;;;4975448;28;20501;-13
2022/05/13 04:16:50;;;;;;;27.95;19.63;;;16.00;81.00;;;;;;4975743;28;20077;-15
2022/05/13 04:19:17;;;;;;;51.83;30.92;;;16.00;80.80;;;;;;4975331;28;20062;-14
2022/05/13 04:21:44;;;;;;;28.67;20.05;;;16.00;80.60;;;;;;4975528;28;20059;-14
2022/05/13 04:24:13;;;;;;;27.48;19.60;;;16.10;80.60;;;;;;4975271;28;20019;-14
2022/05/13 04:26:39;;;;;;;33.53;21.73;;;16.10;80.40;;;;;;4975422;28;20030;-14
2022/05/13 04:29:06;;;;;;;47.28;28.83;;;16.10;80.70;;;;;;4975444;28;20493;-15
2022/05/13 04:31:38;;;;;;;29.15;20.30;;;16.20;80.60;;;;;;4975368;28;20062;-15
2022/05/13 04:34:06;;;;;;;30.27;20.23;;;16.20;80.70;;;;;;4975264;28;20023;-16
2022/05/13 04:36:32;;;;;;;35.78;22.80;;;16.20;80.30;;;;;;4973732;28;20030;-16
2022/05/13 04:38:58;;;;;;;34.30;23.33;;;16.30;80.50;;;;;;4975003;28;20030;-16
2022/05/13 04:44:11;;;;;;;33.65;23.42;;;16.30;80.80;;;;;;4975205;28;20037;-16
2022/05/13 04:46:38;;;;;;;55.65;33.25;;;16.40;80.50;;;;;;4974606;28;20031;-16
2022/05/13 04:49:05;;;;;;;30.85;20.33;;;16.40;80.70;;;;;;4975079;28;20390;-16
2022/05/13 04:51:31;;;;;;;37.97;24.75;;;16.50;80.70;;;;;;4975018;28;20494;-15
2022/05/13 04:53:58;;;;;;;33.05;22.38;;;16.50;80.40;;;;;;4975048;28;20034;-14
2022/05/13 04:56:25;;;;;;;34.05;22.23;;;16.60;80.90;;;;;;4974516;28;20383;-15
2022/05/13 04:58:52;;;;;;;50.92;29.98;;;16.80;80.40;;;;;;4974921;28;20034;-14
2022/05/13 05:01:20;;;;;;;34.08;22.58;;;16.90;80.70;;;;;;4974920;28;20034;-14
2022/05/13 05:03:47;;;;;;;36.95;24.42;;;16.90;80.40;;;;;;4974791;28;20043;-15
2022/05/13 05:06:14;;;;;;;43.50;28.10;;;17.10;81.20;;;;;;4972697;28;20062;-14
2022/05/13 05:08:42;;;;;;;38.53;24.38;;;17.20;81.00;;;;;;4974868;28;20077;-14
2022/05/13 05:11:09;;;;;;;37.17;23.75;;;17.30;80.90;;;;;;4974893;28;20113;-14
2022/05/13 05:13:38;;;;;;;38.22;24.98;;;17.40;80.60;;;;;;4973283;28;20031;-24
2022/05/13 05:16:06;;;;;;;40.40;26.20;;;17.50;81.00;;;;;;4974524;28;20030;-14
2022/05/13 05:18:36;;;;;;;42.65;26.95;;;17.70;80.60;;;;;;4974241;28;20427;-16
2022/05/13 05:21:04;;;;;;;51.83;31.83;;;17.90;80.40;;;;;;4974986;28;20034;-15
2022/05/13 05:23:34;;;;;;;43.95;29.85;;;17.90;81.60;;;;;;4974569;28;20434;-16
2022/05/13 05:26:00;;;;;;;44.95;30.13;;;18.10;80.80;;;;;;4974432;28;20487;-16
2022/05/13 05:28:27;;;;;;;36.00;23.33;;;18.20;81.00;;;;;;4974433;28;20070;-15
2022/05/13 05:30:55;;;;;;;34.15;21.90;;;18.30;80.10;;;;;;4974249;28;20494;-16
2022/05/13 05:33:21;;;;;;;48.10;29.80;;;18.40;79.60;;;;;;4974288;28;20031;-16
2022/05/13 05:35:47;;;;;;;46.13;28.08;;;18.50;80.20;;;;;;4974522;28;20026;-15
2022/05/13 05:38:13;;;;;;;46.05;29.38;;;18.60;79.80;;;;;;4973026;28;20077;-14
2022/05/13 05:40:40;;;;;;;52.67;33.55;;;18.70;79.80;;;;;;4974166;28;20046;-15
2022/05/13 05:43:09;;;;;;;48.88;30.75;;;18.80;81.20;;;;;;4974110;28;20447;-15
2022/05/13 05:45:37;;;;;;;46.45;29.05;;;18.90;79.70;;;;;;4974037;28;20491;-15
2022/05/13 05:48:05;;;;;;;42.92;28.77;;;18.90;80.10;;;;;;4974113;28;20039;-14
2022/05/13 05:50:31;;;;;;;36.70;24.83;;;19.10;80.20;;;;;;4972696;28;20101;-17
2022/05/13 05:52:57;;;;;;;39.20;25.10;;;19.20;79.30;;;;;;4974342;28;20041;-17
2022/05/13 05:58:12;;;;;;;33.80;21.15;;;19.40;79.20;;;;;;4974302;28;20046;-17
2022/05/13 06:00:43;;;;;;;45.58;30.83;;;19.60;78.90;;;;;;4974306;28;20057;-15
2022/05/13 06:03:09;;;;;;;44.38;28.33;;;19.80;78.80;;;;;;4974011;28;20034;-16
2022/05/13 06:05:35;;;;;;;40.47;27.75;;;19.90;78.30;;;;;;4973884;28;20479;-14
2022/05/13 06:08:03;;;;;;;37.58;26.85;;;19.90;78.00;;;;;;4973923;28;20510;-16
2022/05/13 06:10:32;;;;;;;42.78;27.23;;;20.10;77.90;;;;;;4974103;28;20027;-16
2022/05/13 06:12:58;;;;;;;39.33;25.25;;;20.20;77.00;;;;;;4973823;28;20019;-15
2022/05/13 06:15:24;;;;;;;42.25;27.60;;;20.30;76.70;;;;;;4974205;28;20019;-16
2022/05/13 06:17:55;;;;;;;38.65;25.30;;;20.40;76.50;;;;;;4975957;28;20106;-14
2022/05/13 06:20:25;;;;;;;40.40;26.10;;;20.40;75.90;;;;;;4977425;28;20033;-14
2022/05/13 06:22:52;;;;;;;34.30;24.65;;;20.50;75.40;;;;;;4977555;28;20027;-16
2022/05/13 06:25:22;;;;;;;32.63;22.42;;;20.60;75.40;;;;;;4977341;28;20031;-13
2022/05/13 06:27:50;;;;;;;33.92;23.15;;;20.70;75.20;;;;;;4977765;28;20023;-13
2022/05/13 06:30:21;;;;;;;32.97;21.73;;;20.80;75.50;;;;;;4977419;28;20034;-15
2022/05/13 06:32:47;;;;;;;31.88;22.45;;;20.90;74.90;;;;;;4977663;28;20031;-14
2022/05/13 06:35:14;;;;;;;25.80;19.02;;;21.10;74.40;;;;;;4977493;28;20114;-14
2022/05/13 06:37:39;;;;;;;31.75;21.38;;;21.30;74.20;;;;;;4976325;28;20050;-14
2022/05/13 06:40:08;;;;;;;31.95;21.40;;;21.50;72.70;;;;;;4977087;28;20538;-12
2022/05/13 06:42:33;;;;;;;29.17;19.80;;;21.70;72.30;;;;;;4976896;28;20479;-14
2022/05/13 06:44:59;;;;;;;27.08;19.83;;;21.90;72.60;;;;;;4977222;28;20046;-14
2022/05/13 06:47:25;;;;;;;27.67;18.48;;;22.00;71.20;;;;;;4977405;28;20037;-16
2022/05/13 06:49:51;;;;;;;30.45;18.58;;;22.30;71.10;;;;;;4977066;28;20034;-13
2022/05/13 06:52:17;;;;;;;24.67;16.90;;;22.40;69.70;;;;;;4976860;28;20027;-13
2022/05/13 06:54:43;;;;;;;28.90;20.08;;;22.60;69.60;;;;;;4976935;28;20031;-14
2022/05/13 06:57:10;;;;;;;24.70;17.15;;;22.70;68.90;;;;;;4977079;28;20054;-14
2022/05/13 06:59:37;;;;;;;23.25;15.65;;;22.90;68.00;;;;;;4976821;28;20102;-16
2022/05/13 07:02:04;;;;;;;21.23;14.23;;;22.90;66.90;;;;;;4976979;28;20231;-13
2022/05/13 07:04:31;;;;;;;24.65;16.38;;;23.00;65.90;;;;;;4975166;28;20031;-11
2022/05/13 07:06:56;;;;;;;22.65;15.07;;;23.20;65.20;;;;;;4976618;28;20513;-13
2022/05/13 07:09:22;;;;;;;19.05;13.50;;;23.30;65.50;;;;;;4976889;28;20031;-13
2022/05/13 07:11:48;;;;;;;23.40;18.00;;;23.40;65.30;;;;;;4976499;28;20031;-12
2022/05/13 07:14:14;;;;;;;22.27;16.35;;;23.50;65.00;;;;;;4976656;28;20027;-14
2022/05/13 07:16:40;;;;;;;25.98;14.35;;;23.60;64.90;;;;;;4977038;28;20031;-11
2022/05/13 07:19:06;;;;;;;23.27;14.85;;;23.50;62.80;;;;;;4976445;28;20037;-13
2022/05/13 07:21:32;;;;;;;18.42;13.45;;;23.70;63.30;;;;;;4976786;28;20027;-15
2022/05/13 07:23:58;;;;;;;21.70;12.93;;;23.90;63.40;;;;;;4976640;28;20479;-13
2022/05/13 07:26:24;;;;;;;18.23;12.02;;;24.20;62.70;;;;;;4976308;28;20027;-14
2022/05/13 07:28:50;;;;;;;16.42;10.88;;;24.40;59.60;;;;;;4975827;28;20509;-13
2022/05/13 07:31:15;;;;;;;19.13;12.02;;;24.70;59.50;;;;;;4976586;28;20050;-14
2022/05/13 07:33:41;;;;;;;16.10;11.95;;;24.90;59.10;;;;;;4976250;28;20435;-13
2022/05/13 07:36:07;;;;;;;19.75;11.52;;;25.10;58.10;;;;;;4976218;28;20023;-12
2022/05/13 07:38:34;;;;;;;18.30;10.75;;;25.10;58.00;;;;;;4976260;28;20991;-13
2022/05/13 07:41:17;;;;;;;17.77;12.05;;;25.30;58.20;;;;;;4975860;28;20407;-16
2022/05/13 07:43:47;;;;;;;18.77;11.55;;;25.40;56.60;;;;;;4976225;28;20386;-14
2022/05/13 07:46:13;;;;;;;20.98;12.20;;;25.60;57.00;;;;;;4976326;28;20046;-16
2022/05/13 07:48:40;;;;;;;17.08;11.18;;;25.80;56.20;;;;;;4976430;28;20054;-16
2022/05/13 07:51:08;;;;;;;14.05;9.48;;;25.90;56.60;;;;;;4974659;28;20030;-14
2022/05/13 07:53:34;;;;;;;16.88;9.65;;;26.00;56.20;;;;;;4976011;28;20031;-14
2022/05/13 07:56:01;;;;;;;20.02;10.80;;;26.20;56.40;;;;;;4990824;28;20019;-14
2022/05/13 07:58:29;;;;;;;13.93;9.55;;;26.40;55.50;;;;;;4975502;28;20110;-14
2022/05/13 08:00:55;;;;;;;13.52;9.88;;;26.40;54.80;;;;;;4975725;28;20034;-14
2022/05/13 08:03:22;;;;;;;12.68;7.82;;;26.40;54.90;;;;;;4975654;28;20033;-14
2022/05/13 08:05:51;;;;;;;14.68;8.55;;;26.70;54.90;;;;;;4975548;28;20062;-14
2022/05/13 08:08:24;;;;;;;14.30;9.75;;;26.90;53.90;;;;;;4975309;28;20038;-15
2022/05/13 08:10:56;;;;;;;13.68;9.35;;;27.10;52.60;;;;;;4975876;28;20033;-13
2022/05/13 08:13:23;;;;;;;15.30;9.27;;;27.30;51.80;;;;;;4974201;28;20037;-13
2022/05/13 08:15:49;;;;;;;14.75;10.65;;;27.50;51.50;;;;;;4974254;28;20027;-12
2022/05/13 08:18:17;;;;;;;15.50;10.23;;;27.70;49.40;;;;;;4974287;28;20023;-14
2022/05/13 08:20:45;;;;;;;15.60;10.45;;;27.90;49.60;;;;;;4975326;28;20479;-14
2022/05/13 08:23:11;;;;;;;15.63;9.30;;;28.00;50.00;;;;;;4975501;28;20058;-14
2022/05/13 08:25:37;;;;;;;16.48;10.50;;;28.20;50.30;;;;;;4975114;28;20033;-13
2022/05/13 08:28:08;;;;;;;15.32;10.30;;;28.40;49.30;;;;;;4975212;28;20106;-12
2022/05/13 08:30:35;;;;;;;13.48;8.65;;;28.30;48.10;;;;;;4975330;28;20034;-14
2022/05/13 08:33:02;;;;;;;16.25;9.88;;;28.40;48.90;;;;;;4975406;28;20045;-14
2022/05/13 08:35:29;;;;;;;14.75;9.60;;;28.40;48.70;;;;;;4975343;28;20030;-14
2022/05/13 08:37:55;;;;;;;12.65;10.05;;;28.50;48.50;;;;;;4975582;28;20031;-12
2022/05/13 08:40:36;;;;;;;14.98;9.93;;;28.50;48.90;;;;;;4974132;28;20054;-14
2022/05/13 08:43:09;;;;;;;17.50;10.95;;;28.70;47.50;;;;;;4974892;28;20510;-13
2022/05/13 08:45:37;;;;;;;14.65;12.23;;;28.70;46.90;;;;;;4975527;28;20061;-16
2022/05/13 08:48:08;;;;;;;15.18;10.05;;;28.70;47.20;;;;;;4975120;28;20041;-13
2022/05/13 08:51:03;;;;;;;16.90;11.75;;;28.70;47.50;;;;;;4974674;28;20026;-16
2022/05/13 08:53:40;;;;;;;18.90;13.05;;;28.80;47.10;;;;;;4971074;28;20050;-13
2022/05/13 08:56:09;;;;;;;14.55;10.43;;;28.80;47.80;;;;;;4975206;28;20035;-14
2022/05/13 08:58:44;;;;;;;15.98;11.25;;;29.00;48.10;;;;;;4974913;28;20030;-15
2022/05/13 09:01:14;;;;;;;16.83;9.73;;;29.30;47.10;;;;;;4975017;28;20030;-16
2022/05/13 09:03:50;;;;;;;16.73;10.88;;;29.60;47.20;;;;;;4974970;28;20490;-13
2022/05/13 09:06:52;;;;;;;16.73;11.60;;;29.80;45.90;;;;;;4974325;28;20035;-16
2022/05/13 09:09:19;;;;;;;16.73;11.50;;;29.90;44.60;;;;;;4974815;28;20498;-16
2022/05/13 09:12:00;;;;;;;14.73;9.15;;;29.70;45.30;;;;;;4974432;28;20062;-14
2022/05/13 09:14:33;;;;;;;15.45;9.38;;;29.70;44.80;;;;;;4974365;28;20023;-13
2022/05/13 09:17:22;;;;;;;;;;;29.60;45.90;;;;;;4975183;28;20109;-14
2022/05/13 09:20:21;;;;;;;18.30;12.20;;;29.70;45.80;;;;;;4964901;28;19910;-13
2022/05/13 09:22:58;;;;;;;15.48;10.48;;;29.80;43.90;;;;;;4971350;28;20039;-13
2022/05/13 09:25:45;;;;;;;16.48;11.55;;;29.90;45.00;;;;;;4974350;28;20019;-14
2022/05/13 09:28:14;;;;;;;16.15;11.48;;;30.10;45.00;;;;;;4974258;28;20062;-13
2022/05/13 09:30:43;;;;;;;17.30;10.13;;;30.20;44.60;;;;;;4974698;28;20487;-14
2022/05/13 09:33:20;;;;;;;15.13;10.20;;;30.30;44.40;;;;;;4974676;28;20038;-15
2022/05/13 09:35:48;;;;;;;12.10;9.85;;;30.50;43.90;;;;;;4974281;28;20028;-13
2022/05/13 09:38:24;;;;;;;12.80;8.05;;;30.50;43.90;;;;;;4974356;28;20058;-15
2022/05/13 09:41:00;;;;;;;12.25;8.48;;;30.50;44.20;;;;;;4988129;28;20137;-14
2022/05/13 09:43:37;;;;;;;14.20;10.25;;;30.80;44.10;;;;;;4974459;28;20023;-14
2022/05/13 09:46:09;;;;;;;17.85;11.88;;;31.10;42.70;;;;;;4974352;28;20387;-14
2022/05/13 09:48:37;;;;;;;;;;;31.30;42.60;;;;;;4974445;28;20622;-13
2022/05/13 09:51:23;;;;;;;14.77;10.35;;;31.40;42.50;;;;;;4974453;28;19928;-14
2022/05/13 09:54:15;;;;;;;13.57;9.73;;;31.70;42.60;;;;;;4978041;28;20364;-14
2022/05/13 09:57:26;;;;;;;17.13;10.10;;;32.00;42.90;;;;;;4978463;28;20015;-14
2022/05/13 09:59:55;;;;;;;16.30;11.13;;;32.00;40.30;;;;;;4918407;29;20032;-14
2022/05/13 10:02:43;;;;;;;18.08;10.65;;;31.90;41.20;;;;;;4918161;29;20036;-13
2022/05/13 10:05:38;;;;;;;12.68;9.48;;;31.40;41.80;;;;;;4918343;29;20068;-14
2022/05/13 10:08:14;;;;;;;12.15;9.07;;;31.00;42.40;;;;;;4880868;29;20090;-13
2022/05/13 10:14:00;;;;;;;16.15;9.63;;;31.40;43.10;;;;;;4881099;29;20043;-14
2022/05/13 10:16:50;;;;;;;11.88;8.77;;;32.00;41.70;;;;;;4880491;29;20463;-14
2022/05/13 10:19:46;;;;;;;14.10;10.13;;;32.50;41.60;;;;;;4880660;29;20037;-14
2022/05/13 10:22:18;;;;;;;21.58;12.02;;;33.10;39.00;;;;;;4861637;29;20041;-13
2022/05/13 10:24:55;;;;;;;16.00;10.18;;;33.40;39.80;;;;;;4880816;29;20501;-14
2022/05/13 10:27:26;;;;;;;18.48;11.95;;;33.50;40.40;;;;;;4880209;29;20068;-14
2022/05/13 10:29:58;;;;;;;15.82;11.18;;;33.60;38.30;;;;;;4880356;29;20514;-14
2022/05/13 10:32:39;;;;;;;14.75;10.13;;;33.60;39.20;;;;;;4880343;29;20049;-14
2022/05/13 10:35:10;;;;;;;13.00;9.05;;;33.90;37.90;;;;;;4893373;29;20503;-13
2022/05/13 10:37:57;;;;;;;11.88;10.25;;;34.00;38.50;;;;;;4917888;29;20040;-14
2022/05/13 10:40:25;;;;;;;14.98;10.80;;;34.30;38.10;;;;;;4917460;29;20508;-14
2022/05/13 10:43:09;;;;;;;16.52;9.30;;;34.40;37.00;;;;;;4918095;29;20649;-14
2022/05/13 10:45:37;;;;;;;15.80;11.88;;;34.60;37.00;;;;;;4975364;28;20038;-13
2022/05/13 10:48:04;;;;;;;15.85;10.07;;;34.80;37.10;;;;;;4977208;28;20026;-14
2022/05/13 10:50:58;;;;;;;15.27;10.52;;;34.90;36.90;;;;;;4977129;28;20042;-14
2022/05/13 10:53:29;;;;;;;11.90;9.00;;;34.90;36.70;;;;;;4958370;28;20461;-14
2022/05/13 10:56:25;;;;;;;14.38;9.98;;;35.10;36.50;;;;;;4977221;28;20039;-13
2022/05/13 10:59:12;;;;;;;13.63;8.85;;;35.10;36.40;;;;;;4977166;28;20398;-14
2022/05/13 11:01:48;;;;;;;16.83;11.73;;;35.10;36.20;;;;;;4977013;28;20034;-14
2022/05/13 11:04:36;;;;;;;14.00;9.32;;;34.90;36.30;;;;;;4976007;28;20106;-15
2022/05/13 11:07:26;;;;;;;15.23;11.80;;;34.70;37.00;;;;;;4977242;28;20035;-14
2022/05/13 11:10:14;;;;;;;12.20;8.63;;;34.50;36.60;;;;;;4977082;28;20047;-14
2022/05/13 11:13:18;;;;;;;13.65;9.80;;;34.40;37.60;;;;;;4977098;28;20505;-13
2022/05/13 11:16:26;;;;;;;9.73;7.18;;;34.60;37.50;;;;;;4976628;28;20386;-14
2022/05/13 11:19:22;;;;;;;13.45;8.18;;;34.90;36.80;;;;;;4961126;28;20046;-14
2022/05/13 11:21:50;;;;;;;11.15;7.47;;;35.30;37.30;;;;;;4976674;28;20497;-14
2022/05/13 11:27:35;;;;;;;11.75;7.68;;;36.20;35.90;;;;;;4976592;28;20065;-14
2022/05/13 11:30:15;;;;;;;13.27;8.38;;;36.70;34.50;;;;;;4976347;28;20027;-13
2022/05/13 11:32:56;;;;;;;14.50;9.00;;;37.20;34.10;;;;;;4991511;28;20034;-13
2022/05/13 11:35:39;;;;;;;14.95;8.40;;;37.50;33.20;;;;;;4976266;28;20037;-14
2022/05/13 11:39:02;;;;;;;10.38;7.32;;;37.70;32.90;;;;;;4976411;28;20105;-13
2022/05/13 11:41:40;;;;;;;12.43;9.27;;;37.90;33.10;;;;;;4935366;29;20131;-14
2022/05/13 11:44:08;;;;;;;13.02;9.52;;;38.20;32.80;;;;;;4919734;29;20027;-13
2022/05/13 11:46:44;;;;;;;11.00;7.10;;;38.20;32.70;;;;;;4963078;28;20130;-16
2022/05/13 11:49:33;;;;;;;13.02;8.25;;;38.20;32.40;;;;;;4976413;28;20026;-14
2022/05/13 11:52:28;;;;;;;10.32;7.00;;;38.30;31.40;;;;;;4976095;28;20034;-14
2022/05/13 11:55:45;;;;;;;13.55;8.98;;;38.40;31.90;;;;;;4971517;28;20039;-13
2022/05/13 11:58:50;;;;;;;13.80;8.27;;;38.30;31.20;;;;;;4975586;28;20031;-14
2022/05/13 12:01:34;;;;;;;16.10;8.98;;;37.90;32.20;;;;;;4976276;28;20529;-13
2022/05/13 12:04:15;;;;;;;10.82;6.90;;;37.60;32.30;;;;;;4975818;28;20102;-15
2022/05/13 12:06:50;;;;;;;10.80;7.13;;;37.40;32.60;;;;;;4975494;28;20549;-14
2022/05/13 12:09:31;;;;;;;17.75;9.63;;;37.40;31.90;;;;;;4975825;28;20027;-14
2022/05/13 12:12:21;;;;;;;12.60;7.68;;;37.60;32.20;;;;;;4975804;28;20034;-13
2022/05/13 12:14:56;;;;;;;10.60;7.35;;;37.40;32.20;;;;;;4975409;28;20113;-13
2022/05/13 12:17:44;;;;;;;11.98;8.13;;;37.60;32.30;;;;;;4975477;28;20038;-14
2022/05/13 12:20:36;;;;;;;10.65;7.20;;;37.90;33.40;;;;;;4975383;28;20097;-13
2022/05/13 12:23:23;;;;;;;14.05;8.60;;;38.00;33.00;;;;;;4934879;29;20044;-13
2022/05/13 12:25:56;;;;;;;10.45;7.10;;;38.40;32.90;;;;;;4934961;29;20024;-13
2022/05/13 12:28:39;;;;;;;10.30;6.90;;;38.60;32.20;;;;;;4934607;29;20051;-13
2022/05/13 12:31:18;;;;;;;;;;;38.90;32.10;;;;;;4935227;29;20160;-13
2022/05/13 12:37:33;;;;;;;10.88;7.50;;;39.30;32.10;;;;;;4935058;29;19999;-13
2022/05/13 12:39:54;;;;;;;11.80;7.78;;;39.70;30.50;;;;;;4934849;29;20122;-13
2022/05/13 12:42:44;;;;;;;10.52;6.50;;;39.70;31.10;;;;;;4934326;29;20098;-14
2022/05/13 12:45:20;;;;;;;11.48;7.93;;;39.60;31.70;;;;;;4934448;29;20052;-13
2022/05/13 12:48:18;;;;;;;10.90;7.28;;;39.60;30.90;;;;;;4934506;29;20114;-14
2022/05/13 12:51:10;;;;;;;9.90;7.05;;;39.50;30.80;;;;;;4934370;29;20118;-13
2022/05/13 12:53:53;;;;;;;16.00;10.07;;;39.40;31.10;;;;;;4926698;29;20028;-14
2022/05/13 12:56:39;;;;;;;12.75;8.52;;;39.10;31.20;;;;;;4934125;29;20375;-14
2022/05/13 12:59:22;;;;;;;13.45;8.68;;;38.30;31.80;;;;;;4938387;29;20369;-15
2022/05/13 13:01:57;;;;;;;14.15;9.18;;;37.50;32.90;;;;;;4955745;28;20090;-14
2022/05/13 13:04:26;;;;;;;12.07;8.02;;;37.10;33.30;;;;;;4955416;28;20102;-14
2022/05/13 13:06:53;;;;;;;11.30;6.63;;;36.70;33.90;;;;;;4955588;28;20027;-14
2022/05/13 13:09:19;;;;;;;14.50;8.55;;;36.50;34.40;;;;;;4955378;28;20494;-13
2022/05/13 13:11:55;;;;;;;11.40;6.97;;;36.70;33.70;;;;;;4955584;28;20035;-14
2022/05/13 13:14:39;;;;;;;11.65;7.25;;;37.00;33.30;;;;;;4955318;28;20451;-14
2022/05/13 13:17:36;;;;;;;11.15;8.15;;;37.40;33.20;;;;;;4955287;28;20044;-14
2022/05/13 13:20:05;;;;;;;10.55;7.13;;;37.50;33.70;;;;;;4955169;28;20028;-14
2022/05/13 13:22:38;;;;;;;9.40;7.20;;;37.50;33.60;;;;;;4954989;28;20090;-14